CST,Max TemperatureF,Mean TemperatureF,Min TemperatureF,Max Dew PointF,MeanDew PointF,Min DewpointF,Max Humidity, Mean Humidity, Min Humidity, Max Sea Level PressureIn, Mean Sea Level PressureIn, Min Sea Level PressureIn, Max VisibilityMiles, Mean VisibilityMiles, Min VisibilityMiles, Max Wind SpeedMPH, Mean Wind SpeedMPH, Max Gust SpeedMPH,PrecipitationIn, CloudCover, Events, WindDirDegrees
2012-12-1,52,41,30,52,44,30,100,93,85,30.07,29.88,29.79,5,2,0,13,6,15,0.00,7,Fog,159
2012-12-2,56,46,35,50,43,34,100,76,51,30.03,29.93,29.84,10,3,0,18,5,23,0.00,5,Fog,268
2012-12-3,67,54,40,57,48,30,100,79,58,30.01,29.79,29.63,10,6,1,25,14,35,0.00,6,,191
2012-12-4,52,36,20,30,25,17,85,63,41,30.39,30.21,30.02,10,10,10,16,7,20,0.00,0,,304
2012-12-5,40,28,16,30,19,13,84,64,44,30.43,30.28,30.06,10,10,10,22,10,30,0.00,1,,135
2012-12-6,46,41,36,40,34,31,89,75,60,30.02,29.95,29.89,10,10,10,23,11,29,0.02,6,Rain,234
2012-12-7,43,35,27,30,26,22,92,69,45,30.02,29.98,29.92,10,10,9,15,8,18,0.00,6,,25
2012-12-8,39,30,20,31,25,17,92,76,59,30.07,30.02,29.99,10,9,2,16,7,21,0.01,3,Snow,86
2012-12-9,34,29,24,34,30,21,100,92,84,29.99,29.87,29.77,10,5,1,21,9,26,0.18,8,Snow,128
2012-12-10,26,20,13,23,14,8,92,83,73,30.00,29.94,29.81,10,10,10,23,9,30,0.00,6,,297
2012-12-11,37,26,14,25,18,9,88,71,54,30.06,29.98,29.91,10,10,10,18,9,23,0.00,5,,225
2012-12-12,49,37,25,21,18,15,81,55,29,30.11,30.08,30.04,10,10,10,26,14,35,0.00,0,,188
2012-12-13,48,36,23,22,19,16,81,58,34,30.13,30.07,30.04,10,10,10,23,10,30,0.00,0,,199
2012-12-14,51,34,17,39,25,15,92,67,42,30.14,30.01,29.82,10,10,8,17,7,24,T,2,,141
2012-12-15,45,43,40,45,41,37,100,92,83,29.80,29.58,29.49,10,4,2,23,10,28,0.56,8,Rain,165
2012-12-16,39,31,23,37,29,20,92,89,85,29.82,29.71,29.57,10,6,4,17,9,23,0.00,8,,301
2012-12-17,27,24,21,23,21,19,100,91,81,29.81,29.77,29.69,7,5,4,14,4,16,0.00,8,,2
2012-12-18,33,29,25,32,29,24,96,91,85,29.90,29.69,29.53,6,4,0,17,8,23,0.01,8,Fog-Snow,60
2012-12-19,35,33,31,31,30,29,100,91,82,30.04,29.92,29.77,7,4,0,20,8,25,0.50,8,Fog-Snow,75
2012-12-20,31,21,11,30,23,7,100,90,80,30.01,29.68,29.55,8,2,0,41,30,52,0.20,8,Fog-Snow,342
2012-12-21,21,13,4,10,6,0,91,77,62,30.32,30.23,30.01,10,10,6,22,9,29,0.00,0,Snow,303
2012-12-22,26,14,1,15,6,-2,95,75,55,30.28,30.11,29.99,10,9,5,14,4,16,0.00,0,Rain,134
2012-12-23,19,13,7,16,12,6,92,86,80,30.13,30.05,29.98,9,7,4,14,7,16,T,5,,39
2012-12-24,22,20,18,18,14,2,92,82,71,30.29,30.05,29.94,10,6,1,20,7,22,T,6,Snow,315
2012-12-25,14,7,-1,6,1,-5,87,77,67,30.48,30.41,30.30,10,10,10,15,9,17,0.00,0,,341
2012-12-26,22,13,3,16,6,-2,96,85,73,30.37,30.29,30.25,10,10,6,12,6,13,0.00,4,,341
2012-12-27,24,11,-3,19,10,-7,100,86,71,30.27,30.20,30.08,10,10,5,14,5,16,0.00,5,,70
2012-12-28,29,25,21,23,21,17,96,86,75,30.09,30.00,29.94,10,4,1,12,7,14,0.05,8,Snow,48
2012-12-29,21,13,4,18,10,1,88,81,73,30.27,30.14,29.97,10,7,4,21,10,24,T,5,Snow,291
2012-12-30,35,16,-3,23,7,-7,95,80,64,30.32,30.19,30.00,10,7,2,18,7,24,0.00,1,,188
2012-12-31,28,15,2,19,7,-4,84,73,61,30.30,30.18,30.01,10,10,9,21,10,25,0.00,0,,318